sensor_id;sensor_type;location;lat;lon;timestamp;temperature;humidity
25983;DHT22;13773;48.868;10.730;2024-03-08T00:01:41;0.00;99.90
25983;DHT22;13773;48.868;10.730;2024-03-08T00:04:07;0.70;99.90
25983;DHT22;13773;48.868;10.730;2024-03-08T00:06:33;0.00;99.90
25983;DHT22;13773;48.868;10.730;2024-03-08T00:08:59;0.60;99.90
25983;DHT22;13773;48.868;10.730;2024-03-08T00:11:25;0.00;99.90
25983;DHT22;13773;48.868;10.730;2024-03-08T00:13:52;0.40;99.90
25983;DHT22;13773;48.868;10.730;2024-03-08T00:16:18;0.00;99.90
25983;DHT22;13773;48.868;10.730;2024-03-08T00:18:48;0.00;99.90
25983;DHT22;13773;48.868;10.730;2024-03-08T00:21:14;0.10;99.90
25983;DHT22;13773;48.868;10.730;2024-03-08T00:23:41;1.40;99.90
25983;DHT22;13773;48.868;10.730;2024-03-08T00:26:06;0.10;99.90
25983;DHT22;13773;48.868;10.730;2024-03-08T00:28:32;0.60;99.90
25983;DHT22;13773;48.868;10.730;2024-03-08T00:31:00;0.00;99.90
25983;DHT22;13773;48.868;10.730;2024-03-08T00:33:25;0.60;99.90
25983;DHT22;13773;48.868;10.730;2024-03-08T00:35:53;0.00;99.90
25983;DHT22;13773;48.868;10.730;2024-03-08T00:38:19;-0.20;99.90
25983;DHT22;13773;48.868;10.730;2024-03-08T00:40:45;0.00;99.90
25983;DHT22;13773;48.868;10.730;2024-03-08T00:43:11;-0.20;99.90
25983;DHT22;13773;48.868;10.730;2024-03-08T00:45:36;-0.10;99.90
25983;DHT22;13773;48.868;10.730;2024-03-08T00:48:08;-0.10;99.90
25983;DHT22;13773;48.868;10.730;2024-03-08T00:50:34;-0.10;99.90
25983;DHT22;13773;48.868;10.730;2024-03-08T00:53:00;-0.10;99.90
25983;DHT22;13773;48.868;10.730;2024-03-08T00:55:26;0.20;99.90
25983;DHT22;13773;48.868;10.730;2024-03-08T00:57:51;0.00;99.90
25983;DHT22;13773;48.868;10.730;2024-03-08T01:00:19;-0.10;99.90
25983;DHT22;13773;48.868;10.730;2024-03-08T01:02:46;-0.20;99.90
25983;DHT22;13773;48.868;10.730;2024-03-08T01:05:12;-0.20;99.90
25983;DHT22;13773;48.868;10.730;2024-03-08T01:07:38;-0.20;99.90
25983;DHT22;13773;48.868;10.730;2024-03-08T01:10:05;-0.10;99.90
25983;DHT22;13773;48.868;10.730;2024-03-08T01:12:36;0.00;99.90
25983;DHT22;13773;48.868;10.730;2024-03-08T01:15:02;0.10;99.90
25983;DHT22;13773;48.868;10.730;2024-03-08T01:17:28;0.00;99.90
25983;DHT22;13773;48.868;10.730;2024-03-08T01:19:54;0.00;99.90
25983;DHT22;13773;48.868;10.730;2024-03-08T01:22:20;-0.10;99.90
25983;DHT22;13773;48.868;10.730;2024-03-08T01:24:45;-0.10;99.90
25983;DHT22;13773;48.868;10.730;2024-03-08T01:27:11;0.00;99.90
25983;DHT22;13773;48.868;10.730;2024-03-08T01:29:37;0.00;99.90
25983;DHT22;13773;48.868;10.730;2024-03-08T01:32:04;0.10;99.90
25983;DHT22;13773;48.868;10.730;2024-03-08T01:34:29;0.10;99.90
25983;DHT22;13773;48.868;10.730;2024-03-08T01:36:55;0.30;99.90
25983;DHT22;13773;48.868;10.730;2024-03-08T01:39:22;0.30;99.90
25983;DHT22;13773;48.868;10.730;2024-03-08T01:41:47;0.10;99.90
25983;DHT22;13773;48.868;10.730;2024-03-08T01:44:13;0.10;99.90
25983;DHT22;13773;48.868;10.730;2024-03-08T01:46:44;0.20;99.90
25983;DHT22;13773;48.868;10.730;2024-03-08T01:49:12;0.20;99.90
25983;DHT22;13773;48.868;10.730;2024-03-08T01:51:39;0.20;99.90
25983;DHT22;13773;48.868;10.730;2024-03-08T01:54:05;0.10;99.90
25983;DHT22;13773;48.868;10.730;2024-03-08T01:56:32;0.10;99.90
25983;DHT22;13773;48.868;10.730;2024-03-08T01:58:59;-1.40;99.90
25983;DHT22;13773;48.868;10.730;2024-03-08T02:01:25;0.50;99.90
25983;DHT22;13773;48.868;10.730;2024-03-08T02:03:51;0.20;99.90
25983;DHT22;13773;48.868;10.730;2024-03-08T02:06:16;0.10;99.90
25983;DHT22;13773;48.868;10.730;2024-03-08T02:08:43;0.10;99.90
25983;DHT22;13773;48.868;10.730;2024-03-08T02:11:09;0.90;99.90
25983;DHT22;13773;48.868;10.730;2024-03-08T02:13:36;0.20;99.90
25983;DHT22;13773;48.868;10.730;2024-03-08T02:16:01;0.10;99.90
25983;DHT22;13773;48.868;10.730;2024-03-08T02:18:28;0.00;99.90
25983;DHT22;13773;48.868;10.730;2024-03-08T02:20:55;0.10;99.90
25983;DHT22;13773;48.868;10.730;2024-03-08T02:23:22;0.20;99.90
25983;DHT22;13773;48.868;10.730;2024-03-08T02:25:50;0.10;99.90
25983;DHT22;13773;48.868;10.730;2024-03-08T02:28:16;0.10;99.90
25983;DHT22;13773;48.868;10.730;2024-03-08T02:30:48;-0.10;99.90
25983;DHT22;13773;48.868;10.730;2024-03-08T02:33:15;0.00;99.90
25983;DHT22;13773;48.868;10.730;2024-03-08T02:35:45;-1.00;99.90
25983;DHT22;13773;48.868;10.730;2024-03-08T02:38:20;0.10;99.90
25983;DHT22;13773;48.868;10.730;2024-03-08T02:40:48;0.00;99.90
25983;DHT22;13773;48.868;10.730;2024-03-08T02:43:15;-0.10;99.90
25983;DHT22;13773;48.868;10.730;2024-03-08T02:45:41;-0.20;99.90
25983;DHT22;13773;48.868;10.730;2024-03-08T02:48:08;-0.20;99.90
25983;DHT22;13773;48.868;10.730;2024-03-08T02:50:34;-0.20;99.90
25983;DHT22;13773;48.868;10.730;2024-03-08T02:53:00;-0.20;99.90
25983;DHT22;13773;48.868;10.730;2024-03-08T02:55:26;-0.40;99.90
25983;DHT22;13773;48.868;10.730;2024-03-08T02:57:52;-0.30;99.90
25983;DHT22;13773;48.868;10.730;2024-03-08T03:00:20;-0.10;99.90
25983;DHT22;13773;48.868;10.730;2024-03-08T03:02:47;-0.30;99.90
25983;DHT22;13773;48.868;10.730;2024-03-08T03:05:12;-0.30;99.90
25983;DHT22;13773;48.868;10.730;2024-03-08T03:07:39;-0.20;99.90
25983;DHT22;13773;48.868;10.730;2024-03-08T03:10:05;-0.20;99.90
25983;DHT22;13773;48.868;10.730;2024-03-08T03:12:32;-0.30;99.90
25983;DHT22;13773;48.868;10.730;2024-03-08T03:14:59;-0.30;99.90
25983;DHT22;13773;48.868;10.730;2024-03-08T03:17:25;-0.20;99.90
25983;DHT22;13773;48.868;10.730;2024-03-08T03:19:52;-0.20;99.90
25983;DHT22;13773;48.868;10.730;2024-03-08T03:22:18;-0.20;99.90
25983;DHT22;13773;48.868;10.730;2024-03-08T03:24:44;-0.10;99.90
25983;DHT22;13773;48.868;10.730;2024-03-08T03:27:12;0.00;99.90
25983;DHT22;13773;48.868;10.730;2024-03-08T03:29:42;-0.30;99.90
25983;DHT22;13773;48.868;10.730;2024-03-08T03:32:11;-0.40;99.90
25983;DHT22;13773;48.868;10.730;2024-03-08T03:34:37;-0.40;99.90
25983;DHT22;13773;48.868;10.730;2024-03-08T03:37:04;-0.40;99.90
25983;DHT22;13773;48.868;10.730;2024-03-08T03:39:30;-0.40;99.90
25983;DHT22;13773;48.868;10.730;2024-03-08T03:42:00;-0.30;99.90
25983;DHT22;13773;48.868;10.730;2024-03-08T03:44:28;-0.20;99.90
25983;DHT22;13773;48.868;10.730;2024-03-08T03:46:53;-0.40;99.90
25983;DHT22;13773;48.868;10.730;2024-03-08T03:49:19;-0.40;99.90
25983;DHT22;13773;48.868;10.730;2024-03-08T03:51:45;-0.30;99.90
25983;DHT22;13773;48.868;10.730;2024-03-08T03:54:11;-0.40;99.90
25983;DHT22;13773;48.868;10.730;2024-03-08T03:56:38;-0.40;99.90
25983;DHT22;13773;48.868;10.730;2024-03-08T03:59:03;-0.20;99.90
25983;DHT22;13773;48.868;10.730;2024-03-08T04:01:29;-0.10;99.90
25983;DHT22;13773;48.868;10.730;2024-03-08T04:03:55;-0.10;99.90
25983;DHT22;13773;48.868;10.730;2024-03-08T04:06:21;-0.20;99.90
25983;DHT22;13773;48.868;10.730;2024-03-08T04:08:48;-0.20;99.90
25983;DHT22;13773;48.868;10.730;2024-03-08T04:11:13;-0.10;99.90
25983;DHT22;13773;48.868;10.730;2024-03-08T04:13:41;-0.20;99.90
25983;DHT22;13773;48.868;10.730;2024-03-08T04:16:07;-0.10;99.90
25983;DHT22;13773;48.868;10.730;2024-03-08T04:18:34;0.00;99.90
25983;DHT22;13773;48.868;10.730;2024-03-08T04:21:04;-0.10;99.90
25983;DHT22;13773;48.868;10.730;2024-03-08T04:23:33;-0.20;99.90
25983;DHT22;13773;48.868;10.730;2024-03-08T04:26:01;-0.30;99.90
25983;DHT22;13773;48.868;10.730;2024-03-08T04:28:27;-0.20;99.90
25983;DHT22;13773;48.868;10.730;2024-03-08T04:30:53;0.00;99.90
25983;DHT22;13773;48.868;10.730;2024-03-08T04:33:18;-0.20;99.90
25983;DHT22;13773;48.868;10.730;2024-03-08T04:35:44;-0.20;99.90
25983;DHT22;13773;48.868;10.730;2024-03-08T04:38:11;-0.40;99.90
25983;DHT22;13773;48.868;10.730;2024-03-08T04:40:37;-0.40;99.90
25983;DHT22;13773;48.868;10.730;2024-03-08T04:43:02;-0.40;99.90
25983;DHT22;13773;48.868;10.730;2024-03-08T04:45:28;-0.40;99.90
25983;DHT22;13773;48.868;10.730;2024-03-08T04:47:54;-0.20;99.90
25983;DHT22;13773;48.868;10.730;2024-03-08T04:50:19;-0.10;99.90
25983;DHT22;13773;48.868;10.730;2024-03-08T04:52:45;-0.40;99.90
25983;DHT22;13773;48.868;10.730;2024-03-08T04:55:11;-0.20;99.90
25983;DHT22;13773;48.868;10.730;2024-03-08T04:57:37;0.60;99.90
25983;DHT22;13773;48.868;10.730;2024-03-08T05:00:03;0.50;99.90
25983;DHT22;13773;48.868;10.730;2024-03-08T05:02:36;0.00;99.90
25983;DHT22;13773;48.868;10.730;2024-03-08T05:05:02;-0.10;99.90
25983;DHT22;13773;48.868;10.730;2024-03-08T05:07:27;-0.20;99.90
25983;DHT22;13773;48.868;10.730;2024-03-08T05:09:53;-0.20;99.90
25983;DHT22;13773;48.868;10.730;2024-03-08T05:12:19;-0.10;99.90
25983;DHT22;13773;48.868;10.730;2024-03-08T05:14:48;0.30;99.90
25983;DHT22;13773;48.868;10.730;2024-03-08T05:17:15;0.10;99.90
25983;DHT22;13773;48.868;10.730;2024-03-08T05:19:42;0.90;99.90
25983;DHT22;13773;48.868;10.730;2024-03-08T05:22:07;0.20;99.90
25983;DHT22;13773;48.868;10.730;2024-03-08T05:24:33;0.20;99.90
25983;DHT22;13773;48.868;10.730;2024-03-08T05:26:59;0.20;99.90
25983;DHT22;13773;48.868;10.730;2024-03-08T05:29:26;0.20;99.90
25983;DHT22;13773;48.868;10.730;2024-03-08T05:31:52;0.30;99.90
25983;DHT22;13773;48.868;10.730;2024-03-08T05:34:18;0.30;99.90
25983;DHT22;13773;48.868;10.730;2024-03-08T05:36:45;0.30;99.90
25983;DHT22;13773;48.868;10.730;2024-03-08T05:39:15;0.30;99.90
25983;DHT22;13773;48.868;10.730;2024-03-08T05:41:42;0.20;99.90
25983;DHT22;13773;48.868;10.730;2024-03-08T05:44:08;0.20;99.90
25983;DHT22;13773;48.868;10.730;2024-03-08T05:46:34;0.20;99.90
25983;DHT22;13773;48.868;10.730;2024-03-08T05:49:06;0.20;99.90
25983;DHT22;13773;48.868;10.730;2024-03-08T05:51:33;0.30;99.90
25983;DHT22;13773;48.868;10.730;2024-03-08T05:54:02;0.20;99.90
25983;DHT22;13773;48.868;10.730;2024-03-08T05:56:31;0.20;99.90
25983;DHT22;13773;48.868;10.730;2024-03-08T05:58:57;0.30;99.90
25983;DHT22;13773;48.868;10.730;2024-03-08T06:01:26;0.20;99.90
25983;DHT22;13773;48.868;10.730;2024-03-08T06:03:55;0.30;99.90
25983;DHT22;13773;48.868;10.730;2024-03-08T06:06:25;0.30;99.90
25983;DHT22;13773;48.868;10.730;2024-03-08T06:08:52;0.30;99.90
25983;DHT22;13773;48.868;10.730;2024-03-08T06:11:19;0.30;99.90
25983;DHT22;13773;48.868;10.730;2024-03-08T06:13:46;0.30;99.90
25983;DHT22;13773;48.868;10.730;2024-03-08T06:16:12;0.30;99.90
25983;DHT22;13773;48.868;10.730;2024-03-08T06:18:38;0.30;99.90
25983;DHT22;13773;48.868;10.730;2024-03-08T06:21:05;0.30;99.90
25983;DHT22;13773;48.868;10.730;2024-03-08T06:23:35;0.30;99.90
25983;DHT22;13773;48.868;10.730;2024-03-08T06:26:07;0.40;99.90
25983;DHT22;13773;48.868;10.730;2024-03-08T06:28:33;0.40;99.90
25983;DHT22;13773;48.868;10.730;2024-03-08T06:31:00;0.50;99.90
25983;DHT22;13773;48.868;10.730;2024-03-08T06:33:26;0.60;99.90
25983;DHT22;13773;48.868;10.730;2024-03-08T06:35:55;0.50;99.90
25983;DHT22;13773;48.868;10.730;2024-03-08T06:38:26;0.50;99.90
25983;DHT22;13773;48.868;10.730;2024-03-08T06:40:55;0.50;99.90
25983;DHT22;13773;48.868;10.730;2024-03-08T06:43:21;0.50;99.90
25983;DHT22;13773;48.868;10.730;2024-03-08T06:45:47;0.60;99.90
25983;DHT22;13773;48.868;10.730;2024-03-08T06:48:18;2.40;99.90
25983;DHT22;13773;48.868;10.730;2024-03-08T06:50:46;0.70;99.90
25983;DHT22;13773;48.868;10.730;2024-03-08T06:53:12;0.70;99.90
25983;DHT22;13773;48.868;10.730;2024-03-08T06:55:39;0.80;99.90
25983;DHT22;13773;48.868;10.730;2024-03-08T06:58:05;0.80;99.90
25983;DHT22;13773;48.868;10.730;2024-03-08T07:00:32;0.80;99.90
25983;DHT22;13773;48.868;10.730;2024-03-08T07:02:58;0.90;99.90
25983;DHT22;13773;48.868;10.730;2024-03-08T07:05:27;0.80;99.90
25983;DHT22;13773;48.868;10.730;2024-03-08T07:07:52;0.90;99.90
25983;DHT22;13773;48.868;10.730;2024-03-08T07:10:20;0.90;99.90
25983;DHT22;13773;48.868;10.730;2024-03-08T07:12:46;0.90;99.90
25983;DHT22;13773;48.868;10.730;2024-03-08T07:15:12;0.90;99.90
25983;DHT22;13773;48.868;10.730;2024-03-08T07:17:41;1.00;99.90
25983;DHT22;13773;48.868;10.730;2024-03-08T07:20:10;1.10;99.90
25983;DHT22;13773;48.868;10.730;2024-03-08T07:22:38;1.20;99.90
25983;DHT22;13773;48.868;10.730;2024-03-08T07:25:05;1.30;99.90
25983;DHT22;13773;48.868;10.730;2024-03-08T07:27:53;1.20;99.90
25983;DHT22;13773;48.868;10.730;2024-03-08T07:30:26;1.10;99.90
25983;DHT22;13773;48.868;10.730;2024-03-08T07:33:11;1.20;99.90
25983;DHT22;13773;48.868;10.730;2024-03-08T07:35:40;1.10;99.90
25983;DHT22;13773;48.868;10.730;2024-03-08T07:38:06;1.40;99.90
25983;DHT22;13773;48.868;10.730;2024-03-08T07:40:40;1.40;99.90
25983;DHT22;13773;48.868;10.730;2024-03-08T07:43:12;1.40;99.90
25983;DHT22;13773;48.868;10.730;2024-03-08T07:45:38;-0.60;99.90
25983;DHT22;13773;48.868;10.730;2024-03-08T07:48:04;1.40;99.90
25983;DHT22;13773;48.868;10.730;2024-03-08T07:50:38;1.50;99.90
25983;DHT22;13773;48.868;10.730;2024-03-08T07:53:04;1.40;99.90
25983;DHT22;13773;48.868;10.730;2024-03-08T07:55:32;1.60;99.90
25983;DHT22;13773;48.868;10.730;2024-03-08T07:57:58;1.60;99.90
25983;DHT22;13773;48.868;10.730;2024-03-08T08:00:23;1.70;99.90
25983;DHT22;13773;48.868;10.730;2024-03-08T08:02:49;1.50;99.90
25983;DHT22;13773;48.868;10.730;2024-03-08T08:05:16;1.50;99.90
25983;DHT22;13773;48.868;10.730;2024-03-08T08:07:46;1.60;99.90
25983;DHT22;13773;48.868;10.730;2024-03-08T08:10:13;1.50;99.90
25983;DHT22;13773;48.868;10.730;2024-03-08T08:12:48;1.70;99.90
25983;DHT22;13773;48.868;10.730;2024-03-08T08:15:14;1.70;99.90
25983;DHT22;13773;48.868;10.730;2024-03-08T08:17:49;1.80;99.90
25983;DHT22;13773;48.868;10.730;2024-03-08T08:20:14;1.80;99.90
25983;DHT22;13773;48.868;10.730;2024-03-08T08:22:41;1.70;99.90
25983;DHT22;13773;48.868;10.730;2024-03-08T08:25:07;1.80;99.90
25983;DHT22;13773;48.868;10.730;2024-03-08T08:27:33;1.90;99.90
25983;DHT22;13773;48.868;10.730;2024-03-08T08:29:59;2.20;99.90
25983;DHT22;13773;48.868;10.730;2024-03-08T08:32:25;2.00;99.90
25983;DHT22;13773;48.868;10.730;2024-03-08T08:34:51;1.90;99.90
25983;DHT22;13773;48.868;10.730;2024-03-08T08:37:17;1.90;99.90
25983;DHT22;13773;48.868;10.730;2024-03-08T08:39:43;2.00;99.90
25983;DHT22;13773;48.868;10.730;2024-03-08T08:42:08;2.00;99.90
25983;DHT22;13773;48.868;10.730;2024-03-08T08:44:35;1.80;99.90
25983;DHT22;13773;48.868;10.730;2024-03-08T08:47:01;1.80;99.90
25983;DHT22;13773;48.868;10.730;2024-03-08T08:49:28;1.80;99.90
25983;DHT22;13773;48.868;10.730;2024-03-08T08:51:56;2.00;99.90
25983;DHT22;13773;48.868;10.730;2024-03-08T08:54:24;2.40;99.90
25983;DHT22;13773;48.868;10.730;2024-03-08T08:56:50;2.00;99.90
25983;DHT22;13773;48.868;10.730;2024-03-08T08:59:16;1.90;99.90
25983;DHT22;13773;48.868;10.730;2024-03-08T09:01:45;2.10;99.90
25983;DHT22;13773;48.868;10.730;2024-03-08T09:04:13;2.20;99.90
25983;DHT22;13773;48.868;10.730;2024-03-08T09:06:39;2.50;99.90
25983;DHT22;13773;48.868;10.730;2024-03-08T09:09:09;2.40;99.90
25983;DHT22;13773;48.868;10.730;2024-03-08T09:11:36;2.90;99.90
25983;DHT22;13773;48.868;10.730;2024-03-08T09:14:07;2.20;99.90
25983;DHT22;13773;48.868;10.730;2024-03-08T09:16:32;2.50;99.90
25983;DHT22;13773;48.868;10.730;2024-03-08T09:18:58;2.60;99.90
25983;DHT22;13773;48.868;10.730;2024-03-08T09:21:24;2.80;99.90
25983;DHT22;13773;48.868;10.730;2024-03-08T09:23:50;2.60;99.90
25983;DHT22;13773;48.868;10.730;2024-03-08T09:26:15;2.80;99.90
25983;DHT22;13773;48.868;10.730;2024-03-08T09:28:42;2.80;99.90
25983;DHT22;13773;48.868;10.730;2024-03-08T09:31:07;2.40;99.90
25983;DHT22;13773;48.868;10.730;2024-03-08T09:33:33;2.70;99.90
25983;DHT22;13773;48.868;10.730;2024-03-08T09:35:59;2.80;99.90
25983;DHT22;13773;48.868;10.730;2024-03-08T09:38:24;3.00;99.90
25983;DHT22;13773;48.868;10.730;2024-03-08T09:40:51;2.70;99.90
25983;DHT22;13773;48.868;10.730;2024-03-08T09:43:17;2.50;99.90
25983;DHT22;13773;48.868;10.730;2024-03-08T09:45:45;2.70;99.90
25983;DHT22;13773;48.868;10.730;2024-03-08T09:48:15;2.80;99.90
25983;DHT22;13773;48.868;10.730;2024-03-08T09:50:44;3.00;99.90
25983;DHT22;13773;48.868;10.730;2024-03-08T09:53:11;3.00;99.90
25983;DHT22;13773;48.868;10.730;2024-03-08T09:55:38;3.40;99.90
25983;DHT22;13773;48.868;10.730;2024-03-08T09:58:08;3.40;99.90
25983;DHT22;13773;48.868;10.730;2024-03-08T10:00:54;3.70;99.90
25983;DHT22;13773;48.868;10.730;2024-03-08T10:03:23;3.80;99.90
25983;DHT22;13773;48.868;10.730;2024-03-08T10:05:48;3.80;99.90
25983;DHT22;13773;48.868;10.730;2024-03-08T10:08:14;3.90;99.90
25983;DHT22;13773;48.868;10.730;2024-03-08T10:10:40;3.70;99.90
25983;DHT22;13773;48.868;10.730;2024-03-08T10:13:09;3.60;99.90
25983;DHT22;13773;48.868;10.730;2024-03-08T10:15:39;3.60;99.90
25983;DHT22;13773;48.868;10.730;2024-03-08T10:18:05;3.80;99.90
25983;DHT22;13773;48.868;10.730;2024-03-08T10:20:32;3.90;99.90
25983;DHT22;13773;48.868;10.730;2024-03-08T10:23:02;4.10;99.90
25983;DHT22;13773;48.868;10.730;2024-03-08T10:25:29;4.10;99.90
25983;DHT22;13773;48.868;10.730;2024-03-08T10:27:57;4.40;99.90
25983;DHT22;13773;48.868;10.730;2024-03-08T10:30:23;4.20;99.90
25983;DHT22;13773;48.868;10.730;2024-03-08T10:32:49;4.20;99.90
25983;DHT22;13773;48.868;10.730;2024-03-08T10:35:15;4.20;99.90
25983;DHT22;13773;48.868;10.730;2024-03-08T10:37:47;4.20;99.90
25983;DHT22;13773;48.868;10.730;2024-03-08T10:40:17;4.40;99.90
25983;DHT22;13773;48.868;10.730;2024-03-08T10:43:04;4.30;99.90
25983;DHT22;13773;48.868;10.730;2024-03-08T10:45:38;4.60;99.90
25983;DHT22;13773;48.868;10.730;2024-03-08T10:50:53;4.80;99.90
25983;DHT22;13773;48.868;10.730;2024-03-08T10:53:19;4.40;99.90
25983;DHT22;13773;48.868;10.730;2024-03-08T10:55:49;4.70;99.90
25983;DHT22;13773;48.868;10.730;2024-03-08T10:58:20;5.10;99.90
25983;DHT22;13773;48.868;10.730;2024-03-08T11:00:47;5.10;99.90
25983;DHT22;13773;48.868;10.730;2024-03-08T11:08:48;5.70;99.90
25983;DHT22;13773;48.868;10.730;2024-03-08T11:11:29;5.60;99.90
25983;DHT22;13773;48.868;10.730;2024-03-08T11:13:58;5.50;99.90
25983;DHT22;13773;48.868;10.730;2024-03-08T11:19:01;5.70;99.90
25983;DHT22;13773;48.868;10.730;2024-03-08T11:21:30;6.00;99.90
25983;DHT22;13773;48.868;10.730;2024-03-08T11:24:06;6.20;99.90
25983;DHT22;13773;48.868;10.730;2024-03-08T11:26:33;6.40;99.90
25983;DHT22;13773;48.868;10.730;2024-03-08T11:34:37;6.60;99.90
25983;DHT22;13773;48.868;10.730;2024-03-08T11:37:10;6.40;99.90
25983;DHT22;13773;48.868;10.730;2024-03-08T11:39:39;6.60;99.90
25983;DHT22;13773;48.868;10.730;2024-03-08T11:42:05;6.60;99.90
25983;DHT22;13773;48.868;10.730;2024-03-08T11:44:32;6.60;99.90
25983;DHT22;13773;48.868;10.730;2024-03-08T11:46:57;6.40;99.90
25983;DHT22;13773;48.868;10.730;2024-03-08T11:49:23;6.40;99.90
25983;DHT22;13773;48.868;10.730;2024-03-08T11:51:52;6.40;99.90
25983;DHT22;13773;48.868;10.730;2024-03-08T11:54:21;6.70;99.90
25983;DHT22;13773;48.868;10.730;2024-03-08T11:56:50;7.10;99.90
25983;DHT22;13773;48.868;10.730;2024-03-08T11:59:16;7.40;99.90
25983;DHT22;13773;48.868;10.730;2024-03-08T12:01:43;7.40;99.90
25983;DHT22;13773;48.868;10.730;2024-03-08T12:04:11;7.60;99.90
25983;DHT22;13773;48.868;10.730;2024-03-08T12:06:41;7.40;99.90
25983;DHT22;13773;48.868;10.730;2024-03-08T12:09:13;7.30;99.90
25983;DHT22;13773;48.868;10.730;2024-03-08T12:11:40;7.30;99.90
25983;DHT22;13773;48.868;10.730;2024-03-08T12:14:06;7.30;99.90
25983;DHT22;13773;48.868;10.730;2024-03-08T12:16:32;7.10;99.90
25983;DHT22;13773;48.868;10.730;2024-03-08T12:18:59;7.30;99.90
25983;DHT22;13773;48.868;10.730;2024-03-08T12:21:26;7.50;99.90
25983;DHT22;13773;48.868;10.730;2024-03-08T12:24:04;7.50;99.90
25983;DHT22;13773;48.868;10.730;2024-03-08T12:26:30;7.50;99.90
25983;DHT22;13773;48.868;10.730;2024-03-08T12:29:32;8.00;99.90
25983;DHT22;13773;48.868;10.730;2024-03-08T12:31:59;7.90;99.90
25983;DHT22;13773;48.868;10.730;2024-03-08T12:34:26;8.10;99.90
25983;DHT22;13773;48.868;10.730;2024-03-08T12:36:58;7.80;99.90
25983;DHT22;13773;48.868;10.730;2024-03-08T12:39:24;8.00;99.90
25983;DHT22;13773;48.868;10.730;2024-03-08T12:41:54;8.40;99.90
25983;DHT22;13773;48.868;10.730;2024-03-08T12:44:22;8.50;99.90
25983;DHT22;13773;48.868;10.730;2024-03-08T12:46:49;8.30;99.90
25983;DHT22;13773;48.868;10.730;2024-03-08T12:49:15;8.10;99.90
25983;DHT22;13773;48.868;10.730;2024-03-08T12:51:44;8.00;99.90
25983;DHT22;13773;48.868;10.730;2024-03-08T12:54:10;8.30;99.90
25983;DHT22;13773;48.868;10.730;2024-03-08T12:56:36;8.60;99.90
25983;DHT22;13773;48.868;10.730;2024-03-08T12:59:07;8.60;99.90
25983;DHT22;13773;48.868;10.730;2024-03-08T13:01:34;8.50;99.90
25983;DHT22;13773;48.868;10.730;2024-03-08T13:04:03;8.70;99.90
25983;DHT22;13773;48.868;10.730;2024-03-08T13:06:31;8.80;99.90
25983;DHT22;13773;48.868;10.730;2024-03-08T13:08:57;8.50;99.90
25983;DHT22;13773;48.868;10.730;2024-03-08T13:11:24;8.80;99.90
25983;DHT22;13773;48.868;10.730;2024-03-08T13:13:50;9.00;99.90
25983;DHT22;13773;48.868;10.730;2024-03-08T13:16:16;9.10;99.90
25983;DHT22;13773;48.868;10.730;2024-03-08T13:18:43;9.20;99.90
25983;DHT22;13773;48.868;10.730;2024-03-08T13:21:09;9.30;99.90
25983;DHT22;13773;48.868;10.730;2024-03-08T13:23:36;9.40;99.90
25983;DHT22;13773;48.868;10.730;2024-03-08T13:26:10;9.50;99.90
25983;DHT22;13773;48.868;10.730;2024-03-08T13:28:47;9.50;99.90
25983;DHT22;13773;48.868;10.730;2024-03-08T13:31:14;9.40;99.90
25983;DHT22;13773;48.868;10.730;2024-03-08T13:33:40;9.20;99.90
25983;DHT22;13773;48.868;10.730;2024-03-08T13:36:10;9.10;99.90
25983;DHT22;13773;48.868;10.730;2024-03-08T13:38:46;8.90;99.90
25983;DHT22;13773;48.868;10.730;2024-03-08T13:41:13;8.90;99.90
25983;DHT22;13773;48.868;10.730;2024-03-08T13:43:46;9.20;99.90
25983;DHT22;13773;48.868;10.730;2024-03-08T13:46:12;9.30;99.90
25983;DHT22;13773;48.868;10.730;2024-03-08T13:48:38;9.10;99.90
25983;DHT22;13773;48.868;10.730;2024-03-08T13:51:07;9.30;99.90
25983;DHT22;13773;48.868;10.730;2024-03-08T13:53:35;9.30;99.90
25983;DHT22;13773;48.868;10.730;2024-03-08T13:56:04;9.30;99.90
25983;DHT22;13773;48.868;10.730;2024-03-08T13:58:31;9.10;99.90
25983;DHT22;13773;48.868;10.730;2024-03-08T14:00:56;9.10;99.90
25983;DHT22;13773;48.868;10.730;2024-03-08T14:03:22;9.40;99.90
25983;DHT22;13773;48.868;10.730;2024-03-08T14:05:49;9.40;99.90
25983;DHT22;13773;48.868;10.730;2024-03-08T14:08:15;9.50;99.90
25983;DHT22;13773;48.868;10.730;2024-03-08T14:10:43;9.60;99.90
25983;DHT22;13773;48.868;10.730;2024-03-08T14:13:08;9.70;99.90
25983;DHT22;13773;48.868;10.730;2024-03-08T14:15:34;9.70;99.90
25983;DHT22;13773;48.868;10.730;2024-03-08T14:18:01;9.50;99.90
25983;DHT22;13773;48.868;10.730;2024-03-08T14:20:27;9.50;99.90
25983;DHT22;13773;48.868;10.730;2024-03-08T14:22:56;9.50;99.90
25983;DHT22;13773;48.868;10.730;2024-03-08T14:25:25;9.60;99.90
25983;DHT22;13773;48.868;10.730;2024-03-08T14:27:51;9.60;99.90
25983;DHT22;13773;48.868;10.730;2024-03-08T14:30:24;9.40;99.90
25983;DHT22;13773;48.868;10.730;2024-03-08T14:33:04;9.40;99.90
25983;DHT22;13773;48.868;10.730;2024-03-08T14:35:37;9.40;99.90
25983;DHT22;13773;48.868;10.730;2024-03-08T14:38:03;9.30;99.90
25983;DHT22;13773;48.868;10.730;2024-03-08T14:40:29;9.20;99.90
25983;DHT22;13773;48.868;10.730;2024-03-08T14:42:57;9.50;99.90
25983;DHT22;13773;48.868;10.730;2024-03-08T14:45:22;9.60;99.90
25983;DHT22;13773;48.868;10.730;2024-03-08T14:47:50;9.70;99.90
25983;DHT22;13773;48.868;10.730;2024-03-08T14:50:20;9.40;99.90
25983;DHT22;13773;48.868;10.730;2024-03-08T14:52:48;9.30;99.90
25983;DHT22;13773;48.868;10.730;2024-03-08T14:55:14;9.10;99.90
25983;DHT22;13773;48.868;10.730;2024-03-08T14:57:41;9.30;99.90
25983;DHT22;13773;48.868;10.730;2024-03-08T15:00:08;9.30;99.90
25983;DHT22;13773;48.868;10.730;2024-03-08T15:02:42;9.30;99.90
25983;DHT22;13773;48.868;10.730;2024-03-08T15:05:07;9.20;99.90
25983;DHT22;13773;48.868;10.730;2024-03-08T15:07:39;9.40;99.90
25983;DHT22;13773;48.868;10.730;2024-03-08T15:10:08;9.30;99.90
25983;DHT22;13773;48.868;10.730;2024-03-08T15:12:40;9.40;99.90
25983;DHT22;13773;48.868;10.730;2024-03-08T15:15:08;9.10;99.90
25983;DHT22;13773;48.868;10.730;2024-03-08T15:17:35;9.20;99.90
25983;DHT22;13773;48.868;10.730;2024-03-08T15:20:03;9.10;99.90
25983;DHT22;13773;48.868;10.730;2024-03-08T15:22:29;9.20;99.90
25983;DHT22;13773;48.868;10.730;2024-03-08T15:24:54;9.20;99.90
25983;DHT22;13773;48.868;10.730;2024-03-08T15:27:22;9.20;99.90
25983;DHT22;13773;48.868;10.730;2024-03-08T15:29:49;9.20;99.90
25983;DHT22;13773;48.868;10.730;2024-03-08T15:32:17;9.30;99.90
25983;DHT22;13773;48.868;10.730;2024-03-08T15:34:46;9.30;99.90
25983;DHT22;13773;48.868;10.730;2024-03-08T15:37:12;9.30;99.90
25983;DHT22;13773;48.868;10.730;2024-03-08T15:39:43;9.20;99.90
25983;DHT22;13773;48.868;10.730;2024-03-08T15:42:09;8.80;99.90
25983;DHT22;13773;48.868;10.730;2024-03-08T15:44:37;8.70;99.90
25983;DHT22;13773;48.868;10.730;2024-03-08T15:47:04;8.70;99.90